sensor_id;sensor_type;location;lat;lon;timestamp;P1;durP1;ratioP1;P2;durP2;ratioP2
9094;SDS011;4583;49.796;9.902;2023-04-15T00:06:36;12.53;;;6.07;;
9094;SDS011;4583;49.796;9.902;2023-04-15T00:16:39;14.37;;;6.60;;
9094;SDS011;4583;49.796;9.902;2023-04-15T00:26:41;10.40;;;5.93;;
9094;SDS011;4583;49.796;9.902;2023-04-15T00:36:43;14.10;;;5.67;;
9094;SDS011;4583;49.796;9.902;2023-04-15T00:46:45;12.57;;;6.10;;
9094;SDS011;4583;49.796;9.902;2023-04-15T00:56:47;9.30;;;5.37;;
9094;SDS011;4583;49.796;9.902;2023-04-15T01:06:49;8.20;;;5.00;;
9094;SDS011;4583;49.796;9.902;2023-04-15T01:16:51;5.30;;;4.47;;
9094;SDS011;4583;49.796;9.902;2023-04-15T01:26:53;7.40;;;4.40;;
9094;SDS011;4583;49.796;9.902;2023-04-15T01:36:55;7.00;;;4.73;;
9094;SDS011;4583;49.796;9.902;2023-04-15T01:46:56;10.13;;;5.20;;
9094;SDS011;4583;49.796;9.902;2023-04-15T01:56:58;7.77;;;4.90;;
9094;SDS011;4583;49.796;9.902;2023-04-15T02:07:00;9.00;;;4.90;;
9094;SDS011;4583;49.796;9.902;2023-04-15T02:17:02;7.63;;;5.23;;
9094;SDS011;4583;49.796;9.902;2023-04-15T02:27:08;7.60;;;5.17;;
9094;SDS011;4583;49.796;9.902;2023-04-15T02:37:10;11.27;;;5.00;;
9094;SDS011;4583;49.796;9.902;2023-04-15T02:47:13;7.30;;;4.60;;
9094;SDS011;4583;49.796;9.902;2023-04-15T02:57:16;8.37;;;5.13;;
9094;SDS011;4583;49.796;9.902;2023-04-15T03:07:17;9.00;;;4.83;;
9094;SDS011;4583;49.796;9.902;2023-04-15T03:17:19;6.67;;;4.90;;
9094;SDS011;4583;49.796;9.902;2023-04-15T03:27:21;9.20;;;5.70;;
9094;SDS011;4583;49.796;9.902;2023-04-15T03:37:23;8.10;;;4.80;;
9094;SDS011;4583;49.796;9.902;2023-04-15T03:47:24;6.37;;;4.80;;
9094;SDS011;4583;49.796;9.902;2023-04-15T03:57:26;7.57;;;5.07;;
9094;SDS011;4583;49.796;9.902;2023-04-15T04:07:28;9.03;;;4.57;;
9094;SDS011;4583;49.796;9.902;2023-04-15T04:17:30;8.30;;;4.60;;
9094;SDS011;4583;49.796;9.902;2023-04-15T04:27:31;6.50;;;4.77;;
9094;SDS011;4583;49.796;9.902;2023-04-15T04:37:33;5.73;;;4.43;;
9094;SDS011;4583;49.796;9.902;2023-04-15T04:47:35;6.70;;;4.90;;
9094;SDS011;4583;49.796;9.902;2023-04-15T04:57:37;8.47;;;4.67;;
9094;SDS011;4583;49.796;9.902;2023-04-15T05:07:42;14.43;;;8.67;;
9094;SDS011;4583;49.796;9.902;2023-04-15T05:17:43;6.20;;;4.47;;
9094;SDS011;4583;49.796;9.902;2023-04-15T05:27:45;7.30;;;4.50;;
9094;SDS011;4583;49.796;9.902;2023-04-15T05:37:47;8.33;;;4.80;;
9094;SDS011;4583;49.796;9.902;2023-04-15T05:47:49;6.10;;;4.70;;
9094;SDS011;4583;49.796;9.902;2023-04-15T05:57:54;7.70;;;4.50;;
9094;SDS011;4583;49.796;9.902;2023-04-15T06:07:55;5.20;;;4.30;;
9094;SDS011;4583;49.796;9.902;2023-04-15T06:17:57;5.73;;;4.33;;
9094;SDS011;4583;49.796;9.902;2023-04-15T06:27:59;9.53;;;4.70;;
9094;SDS011;4583;49.796;9.902;2023-04-15T06:38:01;8.70;;;4.43;;
9094;SDS011;4583;49.796;9.902;2023-04-15T06:48:03;8.93;;;4.60;;
9094;SDS011;4583;49.796;9.902;2023-04-15T06:58:05;7.20;;;4.33;;
9094;SDS011;4583;49.796;9.902;2023-04-15T07:08:06;7.00;;;4.27;;
9094;SDS011;4583;49.796;9.902;2023-04-15T07:18:09;7.90;;;4.13;;
9094;SDS011;4583;49.796;9.902;2023-04-15T07:28:10;4.50;;;3.77;;
9094;SDS011;4583;49.796;9.902;2023-04-15T07:38:12;6.07;;;4.00;;
9094;SDS011;4583;49.796;9.902;2023-04-15T07:48:14;5.57;;;4.27;;
9094;SDS011;4583;49.796;9.902;2023-04-15T07:58:16;6.30;;;4.80;;
9094;SDS011;4583;49.796;9.902;2023-04-15T08:08:18;6.70;;;4.40;;
9094;SDS011;4583;49.796;9.902;2023-04-15T08:18:20;5.20;;;4.43;;
9094;SDS011;4583;49.796;9.902;2023-04-15T08:28:21;6.83;;;4.87;;
9094;SDS011;4583;49.796;9.902;2023-04-15T08:38:23;11.37;;;7.13;;
9094;SDS011;4583;49.796;9.902;2023-04-15T08:48:25;10.03;;;6.10;;
9094;SDS011;4583;49.796;9.902;2023-04-15T08:58:29;4.00;;;3.30;;
9094;SDS011;4583;49.796;9.902;2023-04-15T09:08:31;5.47;;;3.73;;
9094;SDS011;4583;49.796;9.902;2023-04-15T09:18:35;6.90;;;3.60;;
9094;SDS011;4583;49.796;9.902;2023-04-15T09:28:42;3.93;;;3.20;;
9094;SDS011;4583;49.796;9.902;2023-04-15T09:38:56;3.77;;;2.87;;
9094;SDS011;4583;49.796;9.902;2023-04-15T09:49:06;3.07;;;2.60;;
9094;SDS011;4583;49.796;9.902;2023-04-15T09:59:08;4.03;;;2.50;;
9094;SDS011;4583;49.796;9.902;2023-04-15T10:09:10;4.40;;;3.00;;
9094;SDS011;4583;49.796;9.902;2023-04-15T10:19:13;3.73;;;2.53;;
9094;SDS011;4583;49.796;9.902;2023-04-15T10:29:18;2.10;;;1.80;;
9094;SDS011;4583;49.796;9.902;2023-04-15T10:49:34;4.37;;;1.60;;
9094;SDS011;4583;49.796;9.902;2023-04-15T11:09:59;1.20;;;1.10;;
9094;SDS011;4583;49.796;9.902;2023-04-15T11:20:01;3.73;;;1.43;;
9094;SDS011;4583;49.796;9.902;2023-04-15T11:40:40;1.73;;;1.63;;
9094;SDS011;4583;49.796;9.902;2023-04-15T11:50:51;2.93;;;2.10;;
9094;SDS011;4583;49.796;9.902;2023-04-15T12:00:58;5.50;;;4.30;;
9094;SDS011;4583;49.796;9.902;2023-04-15T12:11:00;2.50;;;1.87;;
9094;SDS011;4583;49.796;9.902;2023-04-15T12:21:09;2.80;;;2.20;;
9094;SDS011;4583;49.796;9.902;2023-04-15T12:31:11;2.17;;;1.83;;
9094;SDS011;4583;49.796;9.902;2023-04-15T12:41:14;1.60;;;1.50;;
9094;SDS011;4583;49.796;9.902;2023-04-15T12:51:16;1.70;;;1.60;;
9094;SDS011;4583;49.796;9.902;2023-04-15T13:01:18;2.87;;;2.57;;
9094;SDS011;4583;49.796;9.902;2023-04-15T13:11:21;2.10;;;1.87;;
9094;SDS011;4583;49.796;9.902;2023-04-15T13:21:22;4.53;;;1.60;;
9094;SDS011;4583;49.796;9.902;2023-04-15T13:31:24;2.10;;;1.90;;
9094;SDS011;4583;49.796;9.902;2023-04-15T13:41:26;1.37;;;1.27;;
9094;SDS011;4583;49.796;9.902;2023-04-15T13:51:28;2.23;;;1.70;;
9094;SDS011;4583;49.796;9.902;2023-04-15T14:01:29;2.43;;;1.50;;
9094;SDS011;4583;49.796;9.902;2023-04-15T14:11:31;2.00;;;1.70;;
9094;SDS011;4583;49.796;9.902;2023-04-15T14:21:35;1.57;;;1.47;;
9094;SDS011;4583;49.796;9.902;2023-04-15T14:31:37;2.50;;;1.70;;
9094;SDS011;4583;49.796;9.902;2023-04-15T14:41:41;1.90;;;1.53;;
9094;SDS011;4583;49.796;9.902;2023-04-15T14:51:43;5.30;;;1.67;;
9094;SDS011;4583;49.796;9.902;2023-04-15T15:01:44;2.73;;;1.50;;
9094;SDS011;4583;49.796;9.902;2023-04-15T15:11:46;2.20;;;1.70;;
9094;SDS011;4583;49.796;9.902;2023-04-15T15:21:48;1.90;;;1.53;;
9094;SDS011;4583;49.796;9.902;2023-04-15T15:31:50;2.10;;;1.60;;
9094;SDS011;4583;49.796;9.902;2023-04-15T15:41:51;1.83;;;1.70;;
9094;SDS011;4583;49.796;9.902;2023-04-15T15:51:53;2.93;;;1.90;;
9094;SDS011;4583;49.796;9.902;2023-04-15T16:01:56;1.80;;;1.60;;
9094;SDS011;4583;49.796;9.902;2023-04-15T16:11:57;1.53;;;1.43;;
9094;SDS011;4583;49.796;9.902;2023-04-15T16:21:59;1.93;;;1.43;;
9094;SDS011;4583;49.796;9.902;2023-04-15T16:32:01;1.63;;;1.40;;
9094;SDS011;4583;49.796;9.902;2023-04-15T16:42:03;1.90;;;1.70;;
9094;SDS011;4583;49.796;9.902;2023-04-15T16:52:05;3.40;;;1.90;;
9094;SDS011;4583;49.796;9.902;2023-04-15T17:02:09;1.40;;;1.30;;
9094;SDS011;4583;49.796;9.902;2023-04-15T17:12:12;2.50;;;1.40;;
9094;SDS011;4583;49.796;9.902;2023-04-15T17:22:14;2.83;;;1.60;;
9094;SDS011;4583;49.796;9.902;2023-04-15T17:32:17;1.97;;;1.60;;
9094;SDS011;4583;49.796;9.902;2023-04-15T17:42:18;3.63;;;1.67;;
9094;SDS011;4583;49.796;9.902;2023-04-15T17:52:21;2.17;;;1.60;;
9094;SDS011;4583;49.796;9.902;2023-04-15T18:02:23;1.53;;;1.30;;
9094;SDS011;4583;49.796;9.902;2023-04-15T18:12:25;2.50;;;1.90;;
9094;SDS011;4583;49.796;9.902;2023-04-15T18:22:27;1.93;;;1.43;;
9094;SDS011;4583;49.796;9.902;2023-04-15T18:32:28;1.80;;;1.40;;
9094;SDS011;4583;49.796;9.902;2023-04-15T18:42:32;2.53;;;1.57;;
9094;SDS011;4583;49.796;9.902;2023-04-15T18:52:34;1.67;;;1.50;;
9094;SDS011;4583;49.796;9.902;2023-04-15T19:02:36;1.93;;;1.53;;
9094;SDS011;4583;49.796;9.902;2023-04-15T19:12:38;3.40;;;2.33;;
9094;SDS011;4583;49.796;9.902;2023-04-15T19:22:40;4.23;;;1.83;;
9094;SDS011;4583;49.796;9.902;2023-04-15T19:32:43;2.00;;;1.50;;
9094;SDS011;4583;49.796;9.902;2023-04-15T19:42:45;2.20;;;1.90;;
9094;SDS011;4583;49.796;9.902;2023-04-15T19:52:46;1.97;;;1.60;;
9094;SDS011;4583;49.796;9.902;2023-04-15T20:02:48;2.27;;;1.60;;
9094;SDS011;4583;49.796;9.902;2023-04-15T20:12:50;2.33;;;1.80;;
9094;SDS011;4583;49.796;9.902;2023-04-15T20:22:53;2.10;;;1.70;;
9094;SDS011;4583;49.796;9.902;2023-04-15T20:32:55;2.23;;;1.80;;
9094;SDS011;4583;49.796;9.902;2023-04-15T20:42:57;1.70;;;1.53;;
9094;SDS011;4583;49.796;9.902;2023-04-15T20:52:59;2.10;;;1.90;;
9094;SDS011;4583;49.796;9.902;2023-04-15T21:03:00;2.50;;;2.30;;
9094;SDS011;4583;49.796;9.902;2023-04-15T21:13:03;3.77;;;2.43;;
9094;SDS011;4583;49.796;9.902;2023-04-15T21:23:06;2.87;;;2.30;;
9094;SDS011;4583;49.796;9.902;2023-04-15T21:33:08;7.10;;;2.67;;
9094;SDS011;4583;49.796;9.902;2023-04-15T21:43:09;2.90;;;2.60;;
9094;SDS011;4583;49.796;9.902;2023-04-15T21:53:11;3.90;;;2.60;;
9094;SDS011;4583;49.796;9.902;2023-04-15T22:03:12;2.90;;;2.60;;
9094;SDS011;4583;49.796;9.902;2023-04-15T22:13:16;3.33;;;3.00;;
9094;SDS011;4583;49.796;9.902;2023-04-15T22:23:18;4.43;;;3.30;;
9094;SDS011;4583;49.796;9.902;2023-04-15T22:33:22;5.03;;;3.83;;
9094;SDS011;4583;49.796;9.902;2023-04-15T22:43:24;4.50;;;3.63;;
9094;SDS011;4583;49.796;9.902;2023-04-15T22:53:27;4.93;;;3.87;;
9094;SDS011;4583;49.796;9.902;2023-04-15T23:03:29;6.40;;;4.47;;
9094;SDS011;4583;49.796;9.902;2023-04-15T23:13:31;6.03;;;4.13;;
9094;SDS011;4583;49.796;9.902;2023-04-15T23:23:33;4.10;;;3.20;;
9094;SDS011;4583;49.796;9.902;2023-04-15T23:33:35;4.57;;;3.43;;
9094;SDS011;4583;49.796;9.902;2023-04-15T23:43:38;4.37;;;3.13;;
9094;SDS011;4583;49.796;9.902;2023-04-15T23:53:39;5.00;;;3.90;;
